Rechercher aéroport 
image banner adimage banner ad
image banner ad

FYWOHL - Wohlzufrieden

Situé à , Namibia

ICAO - , IATA -

Données fournies par Airmate  

Information générale

Coordonnées: S24°11'26" E18°9'40"
Élévation : 4101 feet MSL.
 
Voir autres Aéroports à Hardap

Données opérationnelles

Accessible au public
Heure actuelle UTC:
Heure actuelle locale:
Météo à : FYML - Mariental ( 52 km )
METAR: FYML 211400Z AUTO 10006KT //// // ////// 36/09 Q1016
Voir NOTAMs / SUP AIP / TFR affectant cet aéroport [VIEW]
Fréquences de communication: [VIEW]

Pistes:

Identifiant RWYQFULongueur (ft)Largeur (ft)SurfaceLDA (ft)
16148°3281164GRASS
34328°3281164GRASS

Coordonnées de l'aéroport

Adresse: Namibia

Vue satellite de FYWOHL